sensor_id;sensor_type;location;lat;lon;timestamp;P1;durP1;ratioP1;P2;durP2;ratioP2
64403;SDS011;50726;54.912;-8.392;2022-10-20T00:01:21;923.42;;;856.10;;
64403;SDS011;50726;54.912;-8.392;2022-10-20T00:03:48;923.10;;;855.40;;
64403;SDS011;50726;54.912;-8.392;2022-10-20T00:06:18;909.50;;;843.13;;
64403;SDS011;50726;54.912;-8.392;2022-10-20T00:08:46;905.05;;;839.60;;
64403;SDS011;50726;54.912;-8.392;2022-10-20T00:11:14;909.50;;;843.33;;
64403;SDS011;50726;54.912;-8.392;2022-10-20T00:13:42;868.67;;;807.45;;
64403;SDS011;50726;54.912;-8.392;2022-10-20T00:16:09;891.95;;;827.42;;
64403;SDS011;50726;54.912;-8.392;2022-10-20T00:18:36;902.58;;;837.40;;
64403;SDS011;50726;54.912;-8.392;2022-10-20T00:21:21;895.33;;;830.28;;
64403;SDS011;50726;54.912;-8.392;2022-10-20T00:23:49;902.25;;;835.97;;
64403;SDS011;50726;54.912;-8.392;2022-10-20T00:26:16;885.40;;;820.85;;
64403;SDS011;50726;54.912;-8.392;2022-10-20T00:28:43;898.15;;;831.67;;
64403;SDS011;50726;54.912;-8.392;2022-10-20T00:31:09;887.40;;;823.17;;
64403;SDS011;50726;54.912;-8.392;2022-10-20T00:33:35;876.35;;;812.83;;
64403;SDS011;50726;54.912;-8.392;2022-10-20T00:36:02;864.28;;;801.70;;
64403;SDS011;50726;54.912;-8.392;2022-10-20T00:38:29;873.33;;;810.80;;
64403;SDS011;50726;54.912;-8.392;2022-10-20T00:40:55;865.67;;;803.30;;
64403;SDS011;50726;54.912;-8.392;2022-10-20T00:43:20;875.30;;;812.70;;
64403;SDS011;50726;54.912;-8.392;2022-10-20T00:45:53;875.88;;;812.88;;
64403;SDS011;50726;54.912;-8.392;2022-10-20T00:48:22;869.95;;;807.30;;
64403;SDS011;50726;54.912;-8.392;2022-10-20T00:50:53;877.67;;;814.72;;
64403;SDS011;50726;54.912;-8.392;2022-10-20T00:53:21;892.20;;;828.28;;
64403;SDS011;50726;54.912;-8.392;2022-10-20T00:55:49;889.58;;;826.25;;
64403;SDS011;50726;54.912;-8.392;2022-10-20T00:58:16;892.30;;;828.13;;
64403;SDS011;50726;54.912;-8.392;2022-10-20T01:00:43;885.13;;;822.67;;
64403;SDS011;50726;54.912;-8.392;2022-10-20T01:03:13;890.22;;;827.28;;
64403;SDS011;50726;54.912;-8.392;2022-10-20T01:05:43;902.80;;;838.13;;
64403;SDS011;50726;54.912;-8.392;2022-10-20T01:08:09;907.30;;;842.53;;
64403;SDS011;50726;54.912;-8.392;2022-10-20T01:10:37;902.25;;;838.15;;
64403;SDS011;50726;54.912;-8.392;2022-10-20T01:13:10;906.85;;;841.90;;
64403;SDS011;50726;54.912;-8.392;2022-10-20T01:18:52;910.67;;;845.78;;
64403;SDS011;50726;54.912;-8.392;2022-10-20T01:21:44;908.38;;;843.80;;
64403;SDS011;50726;54.912;-8.392;2022-10-20T01:30:13;915.88;;;849.05;;
64403;SDS011;50726;54.912;-8.392;2022-10-20T01:38:18;933.88;;;866.83;;
64403;SDS011;50726;54.912;-8.392;2022-10-20T01:43:20;907.20;;;842.05;;
64403;SDS011;50726;54.912;-8.392;2022-10-20T01:48:17;908.67;;;842.85;;
64403;SDS011;50726;54.912;-8.392;2022-10-20T01:50:47;900.63;;;835.70;;
64403;SDS011;50726;54.912;-8.392;2022-10-20T01:53:14;897.85;;;832.83;;
64403;SDS011;50726;54.912;-8.392;2022-10-20T01:55:39;910.40;;;843.08;;
64403;SDS011;50726;54.912;-8.392;2022-10-20T02:00:53;916.53;;;849.60;;
64403;SDS011;50726;54.912;-8.392;2022-10-20T02:09:00;902.72;;;836.67;;
64403;SDS011;50726;54.912;-8.392;2022-10-20T02:13:58;918.20;;;850.72;;
64403;SDS011;50726;54.912;-8.392;2022-10-20T02:16:28;910.92;;;844.92;;
64403;SDS011;50726;54.912;-8.392;2022-10-20T02:18:57;912.95;;;846.88;;
64403;SDS011;50726;54.912;-8.392;2022-10-20T02:21:25;914.50;;;848.72;;
64403;SDS011;50726;54.912;-8.392;2022-10-20T02:23:51;905.53;;;840.33;;
64403;SDS011;50726;54.912;-8.392;2022-10-20T02:26:19;915.78;;;849.05;;
64403;SDS011;50726;54.912;-8.392;2022-10-20T02:28:48;920.17;;;852.20;;
64403;SDS011;50726;54.912;-8.392;2022-10-20T02:31:20;906.55;;;839.90;;
64403;SDS011;50726;54.912;-8.392;2022-10-20T02:33:46;906.28;;;840.33;;
64403;SDS011;50726;54.912;-8.392;2022-10-20T02:36:14;900.13;;;834.88;;
64403;SDS011;50726;54.912;-8.392;2022-10-20T02:38:42;898.97;;;833.63;;
64403;SDS011;50726;54.912;-8.392;2022-10-20T02:41:07;901.03;;;835.90;;
64403;SDS011;50726;54.912;-8.392;2022-10-20T02:43:33;903.38;;;837.25;;
64403;SDS011;50726;54.912;-8.392;2022-10-20T02:45:59;902.30;;;836.30;;
64403;SDS011;50726;54.912;-8.392;2022-10-20T02:48:24;902.10;;;836.63;;
64403;SDS011;50726;54.912;-8.392;2022-10-20T02:50:51;906.60;;;840.80;;
64403;SDS011;50726;54.912;-8.392;2022-10-20T02:53:16;904.50;;;839.20;;
64403;SDS011;50726;54.912;-8.392;2022-10-20T02:55:42;902.92;;;838.50;;
64403;SDS011;50726;54.912;-8.392;2022-10-20T02:58:08;892.30;;;828.70;;
64403;SDS011;50726;54.912;-8.392;2022-10-20T03:00:34;885.92;;;822.90;;
64403;SDS011;50726;54.912;-8.392;2022-10-20T03:03:00;885.83;;;822.50;;
64403;SDS011;50726;54.912;-8.392;2022-10-20T03:05:25;899.58;;;835.08;;
64403;SDS011;50726;54.912;-8.392;2022-10-20T03:07:51;893.40;;;829.10;;
64403;SDS011;50726;54.912;-8.392;2022-10-20T03:10:18;893.95;;;828.92;;
64403;SDS011;50726;54.912;-8.392;2022-10-20T03:12:43;883.10;;;819.38;;
64403;SDS011;50726;54.912;-8.392;2022-10-20T03:15:09;888.47;;;825.20;;
64403;SDS011;50726;54.912;-8.392;2022-10-20T03:17:35;877.55;;;815.75;;
64403;SDS011;50726;54.912;-8.392;2022-10-20T03:20:01;874.33;;;812.90;;
64403;SDS011;50726;54.912;-8.392;2022-10-20T03:22:27;879.58;;;818.00;;
64403;SDS011;50726;54.912;-8.392;2022-10-20T03:24:52;844.55;;;786.40;;
64403;SDS011;50726;54.912;-8.392;2022-10-20T03:27:18;837.20;;;779.78;;
64403;SDS011;50726;54.912;-8.392;2022-10-20T03:29:44;854.30;;;794.15;;
64403;SDS011;50726;54.912;-8.392;2022-10-20T03:32:09;808.35;;;751.83;;
64403;SDS011;50726;54.912;-8.392;2022-10-20T03:34:35;823.35;;;765.75;;
64403;SDS011;50726;54.912;-8.392;2022-10-20T03:37:01;838.78;;;779.17;;
64403;SDS011;50726;54.912;-8.392;2022-10-20T03:39:26;839.42;;;780.65;;
64403;SDS011;50726;54.912;-8.392;2022-10-20T03:41:53;836.88;;;777.67;;
64403;SDS011;50726;54.912;-8.392;2022-10-20T03:44:18;837.97;;;778.80;;
64403;SDS011;50726;54.912;-8.392;2022-10-20T03:46:44;840.80;;;781.67;;
64403;SDS011;50726;54.912;-8.392;2022-10-20T03:49:10;827.22;;;769.10;;
64403;SDS011;50726;54.912;-8.392;2022-10-20T03:51:36;833.20;;;774.25;;
64403;SDS011;50726;54.912;-8.392;2022-10-20T03:54:01;840.40;;;780.47;;
64403;SDS011;50726;54.912;-8.392;2022-10-20T03:56:27;823.58;;;765.70;;
64403;SDS011;50726;54.912;-8.392;2022-10-20T03:58:52;825.60;;;768.22;;
64403;SDS011;50726;54.912;-8.392;2022-10-20T04:01:19;790.60;;;735.88;;
64403;SDS011;50726;54.912;-8.392;2022-10-20T04:03:47;802.63;;;747.58;;
64403;SDS011;50726;54.912;-8.392;2022-10-20T04:06:13;811.55;;;755.80;;
64403;SDS011;50726;54.912;-8.392;2022-10-20T04:08:39;809.15;;;752.55;;
64403;SDS011;50726;54.912;-8.392;2022-10-20T04:11:05;795.83;;;740.80;;
64403;SDS011;50726;54.912;-8.392;2022-10-20T04:13:32;807.97;;;751.35;;
64403;SDS011;50726;54.912;-8.392;2022-10-20T04:15:59;804.45;;;748.20;;
64403;SDS011;50726;54.912;-8.392;2022-10-20T04:18:24;812.13;;;755.10;;
64403;SDS011;50726;54.912;-8.392;2022-10-20T04:20:50;816.65;;;759.55;;
64403;SDS011;50726;54.912;-8.392;2022-10-20T04:23:16;817.28;;;760.00;;
64403;SDS011;50726;54.912;-8.392;2022-10-20T04:25:42;817.75;;;761.08;;
64403;SDS011;50726;54.912;-8.392;2022-10-20T04:28:13;822.80;;;766.33;;
64403;SDS011;50726;54.912;-8.392;2022-10-20T04:30:40;813.35;;;757.83;;
64403;SDS011;50726;54.912;-8.392;2022-10-20T04:33:07;805.42;;;750.40;;
64403;SDS011;50726;54.912;-8.392;2022-10-20T04:35:33;811.88;;;754.92;;
64403;SDS011;50726;54.912;-8.392;2022-10-20T04:37:59;808.55;;;752.30;;
64403;SDS011;50726;54.912;-8.392;2022-10-20T04:40:24;809.20;;;752.80;;
64403;SDS011;50726;54.912;-8.392;2022-10-20T04:42:51;814.53;;;757.40;;
64403;SDS011;50726;54.912;-8.392;2022-10-20T04:45:17;813.50;;;757.00;;
64403;SDS011;50726;54.912;-8.392;2022-10-20T04:47:42;822.17;;;764.92;;
64403;SDS011;50726;54.912;-8.392;2022-10-20T04:50:08;815.08;;;758.28;;
64403;SDS011;50726;54.912;-8.392;2022-10-20T04:52:34;827.72;;;771.35;;
64403;SDS011;50726;54.912;-8.392;2022-10-20T04:55:00;830.42;;;772.88;;
64403;SDS011;50726;54.912;-8.392;2022-10-20T04:57:25;833.42;;;775.97;;
64403;SDS011;50726;54.912;-8.392;2022-10-20T04:59:52;835.63;;;777.80;;
64403;SDS011;50726;54.912;-8.392;2022-10-20T05:02:17;817.28;;;761.38;;
64403;SDS011;50726;54.912;-8.392;2022-10-20T05:04:43;825.40;;;768.83;;
64403;SDS011;50726;54.912;-8.392;2022-10-20T05:07:09;827.97;;;771.70;;
64403;SDS011;50726;54.912;-8.392;2022-10-20T05:09:34;826.40;;;769.95;;
64403;SDS011;50726;54.912;-8.392;2022-10-20T05:12:00;825.53;;;768.92;;
64403;SDS011;50726;54.912;-8.392;2022-10-20T05:14:25;809.60;;;753.92;;
64403;SDS011;50726;54.912;-8.392;2022-10-20T05:16:51;815.80;;;760.38;;
64403;SDS011;50726;54.912;-8.392;2022-10-20T05:19:17;813.45;;;758.55;;
64403;SDS011;50726;54.912;-8.392;2022-10-20T05:21:43;803.10;;;747.53;;
64403;SDS011;50726;54.912;-8.392;2022-10-20T05:24:12;808.33;;;753.10;;
64403;SDS011;50726;54.912;-8.392;2022-10-20T05:26:40;769.47;;;717.20;;
64403;SDS011;50726;54.912;-8.392;2022-10-20T05:29:06;761.80;;;710.35;;
64403;SDS011;50726;54.912;-8.392;2022-10-20T05:31:40;765.08;;;712.95;;
64403;SDS011;50726;54.912;-8.392;2022-10-20T05:34:08;774.63;;;722.15;;
64403;SDS011;50726;54.912;-8.392;2022-10-20T05:36:34;775.72;;;723.35;;
64403;SDS011;50726;54.912;-8.392;2022-10-20T05:39:00;775.25;;;722.65;;
64403;SDS011;50726;54.912;-8.392;2022-10-20T05:41:30;737.10;;;687.78;;
64403;SDS011;50726;54.912;-8.392;2022-10-20T05:43:58;758.67;;;706.55;;
64403;SDS011;50726;54.912;-8.392;2022-10-20T05:46:26;757.95;;;706.03;;
64403;SDS011;50726;54.912;-8.392;2022-10-20T05:48:54;767.38;;;715.08;;
64403;SDS011;50726;54.912;-8.392;2022-10-20T05:51:24;773.58;;;720.75;;
64403;SDS011;50726;54.912;-8.392;2022-10-20T05:53:53;757.38;;;705.08;;
64403;SDS011;50726;54.912;-8.392;2022-10-20T05:56:20;764.33;;;712.20;;
64403;SDS011;50726;54.912;-8.392;2022-10-20T05:58:46;770.70;;;718.15;;
64403;SDS011;50726;54.912;-8.392;2022-10-20T06:01:20;769.88;;;717.35;;
64403;SDS011;50726;54.912;-8.392;2022-10-20T06:03:54;780.47;;;727.42;;
64403;SDS011;50726;54.912;-8.392;2022-10-20T06:06:28;780.10;;;727.35;;
64403;SDS011;50726;54.912;-8.392;2022-10-20T06:08:55;786.70;;;732.45;;
64403;SDS011;50726;54.912;-8.392;2022-10-20T06:11:23;776.83;;;723.60;;
64403;SDS011;50726;54.912;-8.392;2022-10-20T06:13:49;785.50;;;731.13;;
64403;SDS011;50726;54.912;-8.392;2022-10-20T06:16:17;786.85;;;733.42;;
64403;SDS011;50726;54.912;-8.392;2022-10-20T06:18:44;781.92;;;726.75;;
64403;SDS011;50726;54.912;-8.392;2022-10-20T06:21:11;763.97;;;712.05;;
64403;SDS011;50726;54.912;-8.392;2022-10-20T06:23:41;780.47;;;727.80;;
64403;SDS011;50726;54.912;-8.392;2022-10-20T06:26:08;773.13;;;720.25;;
64403;SDS011;50726;54.912;-8.392;2022-10-20T06:28:36;771.38;;;718.83;;
64403;SDS011;50726;54.912;-8.392;2022-10-20T06:31:36;779.60;;;726.78;;
64403;SDS011;50726;54.912;-8.392;2022-10-20T06:33:56;778.60;;;726.58;;
64403;SDS011;50726;54.912;-8.392;2022-10-20T06:36:22;764.72;;;714.10;;
64403;SDS011;50726;54.912;-8.392;2022-10-20T06:38:56;777.95;;;725.80;;
64403;SDS011;50726;54.912;-8.392;2022-10-20T06:41:23;775.90;;;723.72;;
64403;SDS011;50726;54.912;-8.392;2022-10-20T06:43:49;771.35;;;720.10;;
64403;SDS011;50726;54.912;-8.392;2022-10-20T06:46:22;769.92;;;719.40;;
64403;SDS011;50726;54.912;-8.392;2022-10-20T06:48:48;762.03;;;712.40;;
64403;SDS011;50726;54.912;-8.392;2022-10-20T06:51:14;758.85;;;708.45;;
64403;SDS011;50726;54.912;-8.392;2022-10-20T06:56:11;750.38;;;700.50;;
64403;SDS011;50726;54.912;-8.392;2022-10-20T06:58:38;762.70;;;713.03;;
64403;SDS011;50726;54.912;-8.392;2022-10-20T07:03:34;770.47;;;719.72;;
64403;SDS011;50726;54.912;-8.392;2022-10-20T07:06:00;769.88;;;719.00;;
64403;SDS011;50726;54.912;-8.392;2022-10-20T07:08:28;779.15;;;727.50;;
64403;SDS011;50726;54.912;-8.392;2022-10-20T07:11:04;783.75;;;732.40;;
64403;SDS011;50726;54.912;-8.392;2022-10-20T07:13:36;777.22;;;725.92;;
64403;SDS011;50726;54.912;-8.392;2022-10-20T07:16:02;769.42;;;718.40;;
64403;SDS011;50726;54.912;-8.392;2022-10-20T07:18:29;765.88;;;714.80;;
64403;SDS011;50726;54.912;-8.392;2022-10-20T07:20:59;755.30;;;705.28;;
64403;SDS011;50726;54.912;-8.392;2022-10-20T07:23:28;778.35;;;727.20;;
64403;SDS011;50726;54.912;-8.392;2022-10-20T07:28:32;774.30;;;723.13;;
64403;SDS011;50726;54.912;-8.392;2022-10-20T07:31:09;780.28;;;728.25;;
64403;SDS011;50726;54.912;-8.392;2022-10-20T07:33:39;778.13;;;725.97;;
64403;SDS011;50726;54.912;-8.392;2022-10-20T07:36:12;768.83;;;718.10;;
64403;SDS011;50726;54.912;-8.392;2022-10-20T07:38:40;775.47;;;723.35;;
64403;SDS011;50726;54.912;-8.392;2022-10-20T07:41:09;762.40;;;711.50;;
64403;SDS011;50726;54.912;-8.392;2022-10-20T07:43:35;774.25;;;722.05;;
64403;SDS011;50726;54.912;-8.392;2022-10-20T07:46:02;767.70;;;716.40;;
64403;SDS011;50726;54.912;-8.392;2022-10-20T07:48:27;778.80;;;726.92;;
64403;SDS011;50726;54.912;-8.392;2022-10-20T07:51:09;765.67;;;714.15;;
64403;SDS011;50726;54.912;-8.392;2022-10-20T07:56:30;734.10;;;684.15;;
64403;SDS011;50726;54.912;-8.392;2022-10-20T07:58:58;707.00;;;659.45;;
64403;SDS011;50726;54.912;-8.392;2022-10-20T08:01:24;703.35;;;654.97;;
64403;SDS011;50726;54.912;-8.392;2022-10-20T08:03:49;736.92;;;685.75;;
64403;SDS011;50726;54.912;-8.392;2022-10-20T08:06:15;745.40;;;694.63;;
64403;SDS011;50726;54.912;-8.392;2022-10-20T08:08:41;738.03;;;687.47;;
64403;SDS011;50726;54.912;-8.392;2022-10-20T08:11:07;729.20;;;678.83;;
64403;SDS011;50726;54.912;-8.392;2022-10-20T08:13:34;714.10;;;665.55;;
64403;SDS011;50726;54.912;-8.392;2022-10-20T08:16:00;743.67;;;692.88;;
64403;SDS011;50726;54.912;-8.392;2022-10-20T08:18:25;759.15;;;707.90;;
64403;SDS011;50726;54.912;-8.392;2022-10-20T08:20:51;761.95;;;709.58;;
64403;SDS011;50726;54.912;-8.392;2022-10-20T08:23:17;767.92;;;715.58;;
64403;SDS011;50726;54.912;-8.392;2022-10-20T08:25:43;764.83;;;712.65;;
64403;SDS011;50726;54.912;-8.392;2022-10-20T08:28:08;771.50;;;718.47;;
64403;SDS011;50726;54.912;-8.392;2022-10-20T08:30:34;790.35;;;735.95;;
64403;SDS011;50726;54.912;-8.392;2022-10-20T08:33:00;788.72;;;734.75;;
64403;SDS011;50726;54.912;-8.392;2022-10-20T08:35:26;783.20;;;729.90;;
64403;SDS011;50726;54.912;-8.392;2022-10-20T08:37:52;797.17;;;742.60;;
64403;SDS011;50726;54.912;-8.392;2022-10-20T08:40:22;803.17;;;748.35;;
64403;SDS011;50726;54.912;-8.392;2022-10-20T08:42:51;815.90;;;760.08;;
64403;SDS011;50726;54.912;-8.392;2022-10-20T08:45:22;820.08;;;763.42;;
64403;SDS011;50726;54.912;-8.392;2022-10-20T08:47:51;812.60;;;756.75;;
64403;SDS011;50726;54.912;-8.392;2022-10-20T08:52:46;816.33;;;759.25;;
64403;SDS011;50726;54.912;-8.392;2022-10-20T08:55:19;819.95;;;763.38;;
64403;SDS011;50726;54.912;-8.392;2022-10-20T08:57:50;822.40;;;765.30;;
64403;SDS011;50726;54.912;-8.392;2022-10-20T09:00:20;829.03;;;771.35;;
64403;SDS011;50726;54.912;-8.392;2022-10-20T09:02:47;830.42;;;772.70;;
64403;SDS011;50726;54.912;-8.392;2022-10-20T09:05:15;831.15;;;773.17;;
64403;SDS011;50726;54.912;-8.392;2022-10-20T09:07:45;834.20;;;774.85;;
64403;SDS011;50726;54.912;-8.392;2022-10-20T09:12:41;820.53;;;762.33;;
64403;SDS011;50726;54.912;-8.392;2022-10-20T09:15:10;815.87;;;759.10;;
64403;SDS011;50726;54.912;-8.392;2022-10-20T09:17:38;846.30;;;785.72;;
64403;SDS011;50726;54.912;-8.392;2022-10-20T09:22:36;849.60;;;788.83;;
64403;SDS011;50726;54.912;-8.392;2022-10-20T09:25:02;849.55;;;789.20;;
64403;SDS011;50726;54.912;-8.392;2022-10-20T09:27:34;847.65;;;788.42;;
64403;SDS011;50726;54.912;-8.392;2022-10-20T09:30:20;850.15;;;791.38;;
64403;SDS011;50726;54.912;-8.392;2022-10-20T09:32:51;857.78;;;798.42;;
64403;SDS011;50726;54.912;-8.392;2022-10-20T09:35:18;867.78;;;808.08;;
64403;SDS011;50726;54.912;-8.392;2022-10-20T09:37:55;883.35;;;822.65;;
64403;SDS011;50726;54.912;-8.392;2022-10-20T09:40:27;883.35;;;822.00;;
64403;SDS011;50726;54.912;-8.392;2022-10-20T09:43:01;881.78;;;820.85;;
64403;SDS011;50726;54.912;-8.392;2022-10-20T09:45:33;882.78;;;821.70;;
64403;SDS011;50726;54.912;-8.392;2022-10-20T09:48:20;890.95;;;829.08;;
64403;SDS011;50726;54.912;-8.392;2022-10-20T09:50:55;875.83;;;816.30;;
64403;SDS011;50726;54.912;-8.392;2022-10-20T09:53:31;886.85;;;825.30;;
64403;SDS011;50726;54.912;-8.392;2022-10-20T09:55:59;890.35;;;830.08;;
64403;SDS011;50726;54.912;-8.392;2022-10-20T09:58:31;901.90;;;840.05;;
64403;SDS011;50726;54.912;-8.392;2022-10-20T10:01:02;913.85;;;853.67;;
64403;SDS011;50726;54.912;-8.392;2022-10-20T10:03:37;916.40;;;856.83;;
64403;SDS011;50726;54.912;-8.392;2022-10-20T10:06:18;929.88;;;867.70;;
64403;SDS011;50726;54.912;-8.392;2022-10-20T10:09:05;940.50;;;878.35;;
64403;SDS011;50726;54.912;-8.392;2022-10-20T10:12:05;948.05;;;885.58;;
64403;SDS011;50726;54.912;-8.392;2022-10-20T10:14:54;914.65;;;856.45;;
64403;SDS011;50726;54.912;-8.392;2022-10-20T10:19:58;261.15;;;245.93;;
64403;SDS011;50726;54.912;-8.392;2022-10-20T10:22:25;225.45;;;212.10;;
64403;SDS011;50726;54.912;-8.392;2022-10-20T10:24:53;244.55;;;230.07;;
64403;SDS011;50726;54.912;-8.392;2022-10-20T10:29:50;249.23;;;234.40;;
64403;SDS011;50726;54.912;-8.392;2022-10-20T10:32:19;205.90;;;193.70;;
64403;SDS011;50726;54.912;-8.392;2022-10-20T10:37:21;190.27;;;177.88;;
64403;SDS011;50726;54.912;-8.392;2022-10-20T10:39:47;185.40;;;173.32;;
64403;SDS011;50726;54.912;-8.392;2022-10-20T10:42:26;233.73;;;219.82;;
64403;SDS011;50726;54.912;-8.392;2022-10-20T11:01:37;179.55;;;168.95;;
64403;SDS011;50726;54.912;-8.392;2022-10-20T11:24:41;151.95;;;142.90;;
64403;SDS011;50726;54.912;-8.392;2022-10-20T11:27:35;177.40;;;167.05;;
64403;SDS011;50726;54.912;-8.392;2022-10-20T11:30:04;161.73;;;152.23;;
64403;SDS011;50726;54.912;-8.392;2022-10-20T11:33:05;127.47;;;119.47;;
64403;SDS011;50726;54.912;-8.392;2022-10-20T11:38:23;122.07;;;115.43;;
64403;SDS011;50726;54.912;-8.392;2022-10-20T11:43:29;131.73;;;122.57;;
64403;SDS011;50726;54.912;-8.392;2022-10-20T11:46:15;128.65;;;121.20;;
64403;SDS011;50726;54.912;-8.392;2022-10-20T11:48:51;122.65;;;115.25;;
64403;SDS011;50726;54.912;-8.392;2022-10-20T12:07:58;137.90;;;129.15;;
64403;SDS011;50726;54.912;-8.392;2022-10-20T12:13:33;113.82;;;107.22;;
64403;SDS011;50726;54.912;-8.392;2022-10-20T12:16:05;111.88;;;105.43;;
64403;SDS011;50726;54.912;-8.392;2022-10-20T12:18:34;128.68;;;121.03;;
64403;SDS011;50726;54.912;-8.392;2022-10-20T12:21:04;112.78;;;106.20;;
64403;SDS011;50726;54.912;-8.392;2022-10-20T12:28:55;109.40;;;103.00;;
64403;SDS011;50726;54.912;-8.392;2022-10-20T12:31:21;116.15;;;109.78;;
64403;SDS011;50726;54.912;-8.392;2022-10-20T12:38:50;86.35;;;80.50;;
64403;SDS011;50726;54.912;-8.392;2022-10-20T12:41:28;102.13;;;96.22;;
64403;SDS011;50726;54.912;-8.392;2022-10-20T12:44:04;108.03;;;101.65;;
64403;SDS011;50726;54.912;-8.392;2022-10-20T12:46:40;107.38;;;100.63;;
64403;SDS011;50726;54.912;-8.392;2022-10-20T12:49:21;113.70;;;106.90;;
64403;SDS011;50726;54.912;-8.392;2022-10-20T12:51:59;115.05;;;108.30;;
64403;SDS011;50726;54.912;-8.392;2022-10-20T12:54:34;93.50;;;87.57;;
64403;SDS011;50726;54.912;-8.392;2022-10-20T12:59:50;70.47;;;65.75;;
64403;SDS011;50726;54.912;-8.392;2022-10-20T13:04:52;64.13;;;60.10;;
64403;SDS011;50726;54.912;-8.392;2022-10-20T13:15:31;66.30;;;61.15;;
64403;SDS011;50726;54.912;-8.392;2022-10-20T13:25:54;69.03;;;64.65;;
64403;SDS011;50726;54.912;-8.392;2022-10-20T13:28:23;75.53;;;70.10;;
64403;SDS011;50726;54.912;-8.392;2022-10-20T13:30:57;67.18;;;62.65;;
64403;SDS011;50726;54.912;-8.392;2022-10-20T13:39:31;49.55;;;45.88;;
64403;SDS011;50726;54.912;-8.392;2022-10-20T13:50:35;33.35;;;30.63;;
64403;SDS011;50726;54.912;-8.392;2022-10-20T13:53:42;31.70;;;29.20;;
64403;SDS011;50726;54.912;-8.392;2022-10-20T13:56:05;29.13;;;26.48;;
64403;SDS011;50726;54.912;-8.392;2022-10-20T13:59:04;28.35;;;26.00;;
64403;SDS011;50726;54.912;-8.392;2022-10-20T14:01:31;36.38;;;32.75;;
64403;SDS011;50726;54.912;-8.392;2022-10-20T14:11:39;42.67;;;38.90;;
64403;SDS011;50726;54.912;-8.392;2022-10-20T14:14:09;41.00;;;38.28;;
64403;SDS011;50726;54.912;-8.392;2022-10-20T14:16:38;48.58;;;44.88;;
64403;SDS011;50726;54.912;-8.392;2022-10-20T14:21:39;22.63;;;20.67;;
64403;SDS011;50726;54.912;-8.392;2022-10-20T14:24:08;24.27;;;22.45;;
64403;SDS011;50726;54.912;-8.392;2022-10-20T14:26:40;17.42;;;15.65;;
64403;SDS011;50726;54.912;-8.392;2022-10-20T14:29:10;17.13;;;15.40;;
64403;SDS011;50726;54.912;-8.392;2022-10-20T14:31:38;20.95;;;11.43;;
64403;SDS011;50726;54.912;-8.392;2022-10-20T14:34:04;13.75;;;11.25;;
64403;SDS011;50726;54.912;-8.392;2022-10-20T14:36:40;14.30;;;8.25;;
64403;SDS011;50726;54.912;-8.392;2022-10-20T14:39:16;12.00;;;9.02;;
64403;SDS011;50726;54.912;-8.392;2022-10-20T14:41:54;13.55;;;8.13;;
64403;SDS011;50726;54.912;-8.392;2022-10-20T14:44:22;17.83;;;9.70;;
64403;SDS011;50726;54.912;-8.392;2022-10-20T14:46:49;18.58;;;10.55;;
64403;SDS011;50726;54.912;-8.392;2022-10-20T14:49:28;13.57;;;9.88;;
64403;SDS011;50726;54.912;-8.392;2022-10-20T14:51:57;20.95;;;13.95;;
64403;SDS011;50726;54.912;-8.392;2022-10-20T14:59:32;40.13;;;37.40;;
64403;SDS011;50726;54.912;-8.392;2022-10-20T15:04:39;54.90;;;51.03;;
64403;SDS011;50726;54.912;-8.392;2022-10-20T15:14:44;96.80;;;91.32;;
64403;SDS011;50726;54.912;-8.392;2022-10-20T15:17:32;106.93;;;100.30;;
64403;SDS011;50726;54.912;-8.392;2022-10-20T15:19:58;110.60;;;104.28;;
64403;SDS011;50726;54.912;-8.392;2022-10-20T15:22:44;119.53;;;112.05;;
64403;SDS011;50726;54.912;-8.392;2022-10-20T15:25:09;124.20;;;116.68;;
64403;SDS011;50726;54.912;-8.392;2022-10-20T15:27:35;126.18;;;118.85;;
64403;SDS011;50726;54.912;-8.392;2022-10-20T15:30:14;127.00;;;119.38;;
64403;SDS011;50726;54.912;-8.392;2022-10-20T15:32:42;132.88;;;124.82;;
64403;SDS011;50726;54.912;-8.392;2022-10-20T15:35:14;136.93;;;128.25;;
64403;SDS011;50726;54.912;-8.392;2022-10-20T15:37:43;137.45;;;129.52;;
64403;SDS011;50726;54.912;-8.392;2022-10-20T15:40:13;151.75;;;143.32;;
64403;SDS011;50726;54.912;-8.392;2022-10-20T15:42:38;167.63;;;157.63;;
64403;SDS011;50726;54.912;-8.392;2022-10-20T15:45:21;163.73;;;153.75;;
64403;SDS011;50726;54.912;-8.392;2022-10-20T15:47:49;156.70;;;147.43;;
64403;SDS011;50726;54.912;-8.392;2022-10-20T15:50:15;156.68;;;147.02;;
64403;SDS011;50726;54.912;-8.392;2022-10-20T15:52:41;160.85;;;151.80;;
64403;SDS011;50726;54.912;-8.392;2022-10-20T15:55:26;170.82;;;160.90;;
64403;SDS011;50726;54.912;-8.392;2022-10-20T15:57:54;284.38;;;268.85;;
64403;SDS011;50726;54.912;-8.392;2022-10-20T16:00:21;258.20;;;243.85;;
64403;SDS011;50726;54.912;-8.392;2022-10-20T16:02:49;249.90;;;236.00;;
64403;SDS011;50726;54.912;-8.392;2022-10-20T16:05:16;224.45;;;212.15;;
64403;SDS011;50726;54.912;-8.392;2022-10-20T16:07:43;214.55;;;202.43;;
64403;SDS011;50726;54.912;-8.392;2022-10-20T16:10:09;200.70;;;189.07;;
64403;SDS011;50726;54.912;-8.392;2022-10-20T16:12:37;205.40;;;193.25;;
64403;SDS011;50726;54.912;-8.392;2022-10-20T16:15:05;220.75;;;208.40;;
64403;SDS011;50726;54.912;-8.392;2022-10-20T16:17:32;234.10;;;220.68;;
64403;SDS011;50726;54.912;-8.392;2022-10-20T16:19:58;252.40;;;238.18;;
64403;SDS011;50726;54.912;-8.392;2022-10-20T16:22:23;272.70;;;256.83;;
64403;SDS011;50726;54.912;-8.392;2022-10-20T16:24:51;275.23;;;259.77;;
64403;SDS011;50726;54.912;-8.392;2022-10-20T16:27:17;274.92;;;259.80;;
64403;SDS011;50726;54.912;-8.392;2022-10-20T16:29:42;284.85;;;268.30;;
64403;SDS011;50726;54.912;-8.392;2022-10-20T16:32:08;284.20;;;267.52;;
64403;SDS011;50726;54.912;-8.392;2022-10-20T16:34:35;290.27;;;273.15;;
64403;SDS011;50726;54.912;-8.392;2022-10-20T16:37:00;287.58;;;270.88;;
64403;SDS011;50726;54.912;-8.392;2022-10-20T16:39:26;281.52;;;265.27;;
64403;SDS011;50726;54.912;-8.392;2022-10-20T16:41:52;284.45;;;267.98;;
64403;SDS011;50726;54.912;-8.392;2022-10-20T16:44:17;294.50;;;277.85;;
64403;SDS011;50726;54.912;-8.392;2022-10-20T16:46:43;306.25;;;288.75;;
64403;SDS011;50726;54.912;-8.392;2022-10-20T16:49:09;310.40;;;293.10;;
64403;SDS011;50726;54.912;-8.392;2022-10-20T16:51:34;299.80;;;282.17;;
64403;SDS011;50726;54.912;-8.392;2022-10-20T16:54:00;316.77;;;298.25;;
64403;SDS011;50726;54.912;-8.392;2022-10-20T16:56:26;315.77;;;296.98;;
64403;SDS011;50726;54.912;-8.392;2022-10-20T16:58:52;309.55;;;291.30;;
64403;SDS011;50726;54.912;-8.392;2022-10-20T17:01:19;327.88;;;309.17;;
64403;SDS011;50726;54.912;-8.392;2022-10-20T17:03:46;338.23;;;319.05;;
64403;SDS011;50726;54.912;-8.392;2022-10-20T17:06:14;336.05;;;316.63;;
64403;SDS011;50726;54.912;-8.392;2022-10-20T17:08:41;342.85;;;323.33;;